createdAt,value
2022-08-28T00:01:19.382Z,101811.84
2022-08-28T00:03:51.495Z,101806.63
2022-08-28T00:06:23.591Z,101805.75
2022-08-28T00:08:56.539Z,101805.72
2022-08-28T00:11:28.525Z,101809.28
2022-08-28T00:14:00.971Z,101807.56
2022-08-28T00:16:33.714Z,101804.06
2022-08-28T00:19:06.729Z,101811.97
2022-08-28T00:21:38.779Z,101811.09
2022-08-28T00:24:11.394Z,101814.66
2022-08-28T00:27:03.146Z,101803.19
2022-08-28T00:29:35.278Z,101810.31
2022-08-28T00:32:08.961Z,101803.25
2022-08-28T00:34:41.264Z,101809.56
2022-08-28T00:37:13.314Z,101810.53
2022-08-28T00:39:45.388Z,101815.84
2022-08-28T00:42:17.470Z,101814.97
2022-08-28T00:44:49.557Z,101810.72
2022-08-28T00:47:26.428Z,101807.22
2022-08-28T00:49:58.663Z,101802.84
2022-08-28T00:52:30.865Z,101802.91
2022-08-28T00:55:09.306Z,101809.94
2022-08-28T00:57:49.430Z,101801.97
2022-08-28T01:00:33.942Z,101812.53
2022-08-28T01:03:06.997Z,101809.03
2022-08-28T01:05:43.752Z,101805.44
2022-08-28T01:08:16.896Z,101805.53
2022-08-28T01:10:55.021Z,101797.72
2022-08-28T01:13:28.352Z,101810.94
2022-08-28T01:16:01.698Z,101806.63
2022-08-28T01:18:34.953Z,101802.25
2022-08-28T01:21:31.263Z,101812.81
2022-08-28T01:24:08.740Z,101814.56
2022-08-28T01:26:42.134Z,101813.69
2022-08-28T01:29:14.802Z,101821.63
2022-08-28T01:31:48.527Z,101826.88
2022-08-28T01:34:21.302Z,101821.53
2022-08-28T01:36:53.324Z,101820.66
2022-08-28T01:39:28.189Z,101827.66
2022-08-28T01:42:03.716Z,101834.66
2022-08-28T01:44:35.670Z,101837.28
2022-08-28T01:47:07.680Z,101831.06
2022-08-28T01:49:39.661Z,101833.69
2022-08-28T01:52:11.861Z,101824.97
2022-08-28T01:54:43.868Z,101819.78
2022-08-28T01:57:15.891Z,101818.06
2022-08-28T01:59:50.907Z,101823.38
2022-08-28T02:02:23.236Z,101812.84
2022-08-28T02:04:55.169Z,101814.56
2022-08-28T02:07:27.189Z,101813.75
2022-08-28T02:10:02.922Z,101819.97
2022-08-28T02:12:36.023Z,101813.84
2022-08-28T02:15:08.739Z,101821.81
2022-08-28T02:17:40.885Z,101818.25
2022-08-28T02:20:13.093Z,101826.22
2022-08-28T02:22:45.830Z,101827.97
2022-08-28T02:25:18.864Z,101840.16
2022-08-28T02:27:50.975Z,101834.00
2022-08-28T02:30:23.689Z,101832.28
2022-08-28T02:32:55.746Z,101833.03
2022-08-28T02:35:28.001Z,101832.06
2022-08-28T02:38:01.115Z,101839.94
2022-08-28T02:40:33.310Z,101838.19
2022-08-28T02:43:06.029Z,101835.56
2022-08-28T02:45:38.066Z,101837.38
2022-08-28T02:48:11.931Z,101839.94
2022-08-28T02:50:49.051Z,101844.34
2022-08-28T02:53:21.045Z,101845.31
2022-08-28T02:55:53.099Z,101847.91
2022-08-28T02:58:27.442Z,101842.63
2022-08-28T03:01:01.919Z,101842.63
2022-08-28T03:03:34.361Z,101841.75
2022-08-28T03:06:07.689Z,101842.63
2022-08-28T03:08:43.850Z,101838.25
2022-08-28T03:11:15.915Z,101840.91
2022-08-28T03:13:47.993Z,101834.78
2022-08-28T03:16:20.437Z,101828.59
2022-08-28T03:18:52.621Z,101830.31
2022-08-28T03:21:24.734Z,101818.09
2022-08-28T03:23:56.737Z,101818.06
2022-08-28T03:26:29.778Z,101824.19
2022-08-28T03:29:01.846Z,101822.50
2022-08-28T03:31:35.950Z,101821.63
2022-08-28T03:34:08.382Z,101820.00
2022-08-28T03:36:40.361Z,101816.47
2022-08-28T03:39:13.942Z,101818.31
2022-08-28T03:41:45.969Z,101815.75
2022-08-28T03:44:17.980Z,101819.22
2022-08-28T03:46:49.931Z,101824.56
2022-08-28T03:49:22.056Z,101816.66
2022-08-28T03:51:55.102Z,101829.03
2022-08-28T03:54:27.161Z,101827.34
2022-08-28T03:56:59.210Z,101832.72
2022-08-28T03:59:32.010Z,101834.56
2022-08-28T04:02:05.761Z,101828.50
2022-08-28T04:04:37.759Z,101832.94
2022-08-28T04:07:09.750Z,101834.69
2022-08-28T04:09:41.813Z,101831.22
2022-08-28T04:12:15.351Z,101832.09
2022-08-28T04:14:47.758Z,101833.91
2022-08-28T04:17:20.049Z,101833.13
2022-08-28T04:19:55.265Z,101838.41
2022-08-28T04:22:27.571Z,101843.66
2022-08-28T04:24:59.725Z,101846.31
2022-08-28T04:27:31.946Z,101848.88
2022-08-28T04:30:05.427Z,101848.00
2022-08-28T04:32:39.759Z,101851.56
2022-08-28T04:35:14.701Z,101858.56
2022-08-28T04:37:46.672Z,101857.72
2022-08-28T04:40:19.395Z,101861.25
2022-08-28T04:42:51.840Z,101863.00
2022-08-28T04:45:24.020Z,101853.34
2022-08-28T04:47:55.973Z,101868.31
2022-08-28T04:50:28.067Z,101861.28
2022-08-28T04:53:00.273Z,101867.47
2022-08-28T04:55:54.720Z,101864.81
2022-08-28T04:58:24.556Z,101869.25
2022-08-28T05:00:57.254Z,101870.97
2022-08-28T05:03:29.282Z,101865.72
2022-08-28T05:06:03.692Z,101876.25
2022-08-28T05:08:35.693Z,101870.97
2022-08-28T05:11:33.148Z,101870.06
2022-08-28T05:14:13.912Z,101868.31
2022-08-28T05:16:51.221Z,101870.03
2022-08-28T05:19:24.764Z,101878.88
2022-08-28T05:21:56.894Z,101878.88
2022-08-28T05:24:28.957Z,101878.03
2022-08-28T05:27:01.073Z,101882.38
2022-08-28T05:29:33.447Z,101885.03
2022-08-28T05:32:05.805Z,101883.16
2022-08-28T05:34:37.777Z,101885.78
2022-08-28T05:37:09.880Z,101882.25
2022-08-28T05:39:41.897Z,101884.00
2022-08-28T05:42:13.892Z,101886.63
2022-08-28T05:44:45.898Z,101883.91
2022-08-28T05:47:18.491Z,101881.19
2022-08-28T05:49:53.672Z,101887.31
2022-08-28T05:52:26.193Z,101888.06
2022-08-28T05:54:58.662Z,101893.25
2022-08-28T05:57:30.683Z,101892.34
2022-08-28T06:00:04.968Z,101889.69
2022-08-28T06:02:36.960Z,101896.69
2022-08-28T06:05:12.994Z,101893.09
2022-08-28T06:07:45.273Z,101893.09
2022-08-28T06:10:17.717Z,101891.25
2022-08-28T06:12:51.220Z,101890.34
2022-08-28T06:15:23.195Z,101894.63
2022-08-28T06:17:55.688Z,101886.59
2022-08-28T06:20:27.636Z,101891.75
2022-08-28T06:22:59.652Z,101890.75
2022-08-28T06:25:31.613Z,101893.44
2022-08-28T06:28:03.886Z,101891.56
2022-08-28T06:30:37.303Z,101890.63
2022-08-28T06:33:13.949Z,101895.81
2022-08-28T06:35:49.930Z,101895.81
2022-08-28T06:38:25.936Z,101905.41
2022-08-28T06:40:58.734Z,101907.16
2022-08-28T06:43:30.729Z,101916.00
2022-08-28T06:46:03.481Z,101913.31
2022-08-28T06:48:35.711Z,101912.41
2022-08-28T06:51:11.383Z,101914.13
2022-08-28T06:53:45.910Z,101912.25
2022-08-28T06:56:26.349Z,101914.81
2022-08-28T06:59:01.677Z,101919.19
2022-08-28T07:01:37.017Z,101912.94
2022-08-28T07:04:11.234Z,101918.13
2022-08-28T07:06:54.215Z,101924.97
2022-08-28T07:09:26.894Z,101919.41
2022-08-28T07:11:58.880Z,101926.16
2022-08-28T07:14:30.869Z,101923.16
2022-08-28T07:17:02.869Z,101927.19
2022-08-28T07:19:35.038Z,101919.06
2022-08-28T07:22:07.052Z,101927.56
2022-08-28T07:24:39.196Z,101931.69
2022-08-28T07:27:14.661Z,101922.69
2022-08-28T07:29:49.290Z,101924.84
2022-08-28T07:32:23.960Z,101927.19
2022-08-28T07:34:57.514Z,101934.81
2022-08-28T07:37:30.201Z,101936.88
2022-08-28T07:40:02.338Z,101936.34
2022-08-28T07:42:52.729Z,101933.41
2022-08-28T07:45:26.271Z,101929.19
2022-08-28T07:47:58.438Z,101929.41
2022-08-28T07:50:30.442Z,101926.13
2022-08-28T07:53:02.539Z,101933.06
2022-08-28T07:55:34.889Z,101931.84
2022-08-28T07:58:07.386Z,101940.94
2022-08-28T08:00:39.405Z,101938.88
2022-08-28T08:03:11.495Z,101943.81
2022-08-28T08:05:56.042Z,101941.94
2022-08-28T08:08:32.655Z,101937.69
2022-08-28T08:11:16.589Z,101945.06
2022-08-28T08:13:51.014Z,101941.38
2022-08-28T08:16:26.154Z,101936.69
2022-08-28T08:18:58.205Z,101936.94
2022-08-28T08:21:30.793Z,101940.00
2022-08-28T08:24:03.484Z,101936.19
2022-08-28T08:26:36.422Z,101939.03
2022-08-28T08:29:08.719Z,101942.41
2022-08-28T08:31:41.149Z,101946.97
2022-08-28T08:34:16.964Z,101944.22
2022-08-28T08:36:49.036Z,101947.66
2022-08-28T08:39:21.153Z,101949.91
2022-08-28T08:41:59.919Z,101944.19
2022-08-28T08:44:43.076Z,101943.22
2022-08-28T08:47:39.349Z,101952.06
2022-08-28T08:50:29.834Z,101944.13
2022-08-28T08:53:32.253Z,101948.03
2022-08-28T08:56:06.319Z,101955.31
2022-08-28T08:58:42.322Z,101945.78
2022-08-28T09:02:12.282Z,101958.75
2022-08-28T09:04:49.824Z,101948.06
2022-08-28T09:07:38.134Z,101940.09
2022-08-28T09:10:12.600Z,101946.28
2022-08-28T09:13:02.923Z,101941.63
2022-08-28T09:15:42.765Z,101940.78
2022-08-28T09:18:28.642Z,101942.97
2022-08-28T09:21:00.779Z,101944.03
2022-08-28T09:23:32.958Z,101943.81
2022-08-28T09:26:12.892Z,101948.25
2022-08-28T09:28:50.783Z,101947.69
2022-08-28T09:31:41.205Z,101942.13
2022-08-28T09:34:38.568Z,101949.50
2022-08-28T09:37:27.002Z,101957.81
2022-08-28T09:40:22.947Z,101967.56
2022-08-28T09:43:26.763Z,101969.72
2022-08-28T09:46:07.099Z,101968.66
2022-08-28T09:48:43.773Z,101980.34
2022-08-28T09:51:21.435Z,101978.81
2022-08-28T09:53:56.325Z,101985.75
2022-08-28T09:56:35.722Z,101966.78
2022-08-28T09:59:12.896Z,101973.69
2022-08-28T10:02:20.514Z,101952.41
2022-08-28T10:05:08.825Z,101971.75
2022-08-28T10:08:23.352Z,101964.75
2022-08-28T10:11:01.408Z,101967.25
2022-08-28T10:13:48.219Z,101966.50
2022-08-28T10:16:33.770Z,101963.72
2022-08-28T10:19:42.080Z,101963.78
2022-08-28T10:22:51.355Z,101971.13
2022-08-28T10:25:40.690Z,101967.91
2022-08-28T10:28:34.990Z,101973.91
2022-08-28T10:31:37.065Z,101964.19
2022-08-28T10:34:46.930Z,101982.31
2022-08-28T10:38:05.510Z,101980.66
2022-08-28T10:41:10.871Z,101988.34
2022-08-28T10:43:48.528Z,101978.59
2022-08-28T10:46:35.502Z,101981.34
2022-08-28T10:49:29.176Z,101980.47
2022-08-28T10:52:26.585Z,101971.22
2022-08-28T10:55:23.183Z,101978.22
2022-08-28T10:58:23.894Z,101972.50
2022-08-28T11:01:04.684Z,101975.25
2022-08-28T11:03:49.409Z,101975.06
2022-08-28T11:06:35.667Z,101975.88
2022-08-28T11:09:26.853Z,101987.00
2022-08-28T11:12:09.706Z,101981.19
2022-08-28T11:14:47.887Z,101989.22
2022-08-28T11:17:25.323Z,101988.50
2022-08-28T11:20:59.820Z,101992.69
2022-08-28T11:23:49.896Z,101982.22
2022-08-28T11:26:37.676Z,101981.06
2022-08-28T11:29:10.216Z,101971.19
2022-08-28T11:31:45.045Z,101980.53
2022-08-28T11:34:58.223Z,101978.75
2022-08-28T11:37:52.258Z,101988.69
2022-08-28T11:40:33.412Z,101998.63
2022-08-28T11:43:16.240Z,101996.88
2022-08-28T11:45:49.159Z,102002.03
2022-08-28T11:48:36.358Z,101992.34
2022-08-28T11:51:17.608Z,101989.81
2022-08-28T11:54:21.839Z,101996.06
2022-08-28T11:57:11.481Z,102001.31
2022-08-28T11:59:58.387Z,101992.94
2022-08-28T12:02:43.269Z,102000.97
2022-08-28T12:05:15.345Z,101998.09
2022-08-28T12:07:50.771Z,102005.19
2022-08-28T12:10:22.677Z,102007.03
2022-08-28T12:13:00.909Z,101992.72
2022-08-28T12:15:33.586Z,101995.75
2022-08-28T12:18:11.825Z,101997.41
2022-08-28T12:21:07.121Z,101991.25
2022-08-28T12:23:41.243Z,101993.41
2022-08-28T12:26:27.374Z,101997.50
2022-08-28T12:29:05.891Z,102003.09
2022-08-28T12:32:11.647Z,101999.59
2022-08-28T12:34:58.844Z,101992.53
2022-08-28T12:37:52.239Z,102004.75
2022-08-28T12:40:29.753Z,102000.06
2022-08-28T12:43:08.435Z,101997.69
2022-08-28T12:45:52.722Z,101996.81
2022-08-28T12:48:34.483Z,101998.69
2022-08-28T12:51:14.474Z,101993.28
2022-08-28T12:53:53.492Z,101992.19
2022-08-28T12:56:30.214Z,101995.13
2022-08-28T12:59:27.773Z,101994.91
2022-08-28T13:02:31.414Z,101993.47
2022-08-28T13:05:10.378Z,101990.09
2022-08-28T13:07:50.293Z,101992.09
2022-08-28T13:10:30.866Z,101992.00
2022-08-28T13:13:06.554Z,101984.66
2022-08-28T13:15:53.519Z,101980.94
2022-08-28T13:18:49.852Z,101973.16
2022-08-28T13:21:32.844Z,101983.38
2022-08-28T13:24:35.962Z,101978.22
2022-08-28T13:27:20.866Z,101975.34
2022-08-28T13:30:07.369Z,101983.50
2022-08-28T13:32:40.795Z,101975.06
2022-08-28T13:35:32.764Z,101979.63
2022-08-28T13:38:12.777Z,101977.31
2022-08-28T13:41:04.172Z,101974.78
2022-08-28T13:43:47.362Z,101985.69
2022-08-28T13:46:20.132Z,101984.66
2022-08-28T13:48:52.255Z,101983.03
2022-08-28T13:51:26.649Z,101993.06
2022-08-28T13:53:58.920Z,101981.00
2022-08-28T13:56:32.733Z,101984.47
2022-08-28T13:59:05.584Z,101973.59
2022-08-28T14:01:57.644Z,101977.50
2022-08-28T14:04:29.825Z,101983.50
2022-08-28T14:07:01.898Z,101973.28
2022-08-28T14:09:35.468Z,101984.63
2022-08-28T14:12:10.064Z,101980.81
2022-08-28T14:14:42.161Z,101978.16
2022-08-28T14:17:14.266Z,101977.19
2022-08-28T14:19:46.251Z,101971.88
2022-08-28T14:22:18.244Z,101970.00
2022-08-28T14:24:50.209Z,101970.25
2022-08-28T14:27:22.206Z,101965.69
2022-08-28T14:29:54.253Z,101965.53
2022-08-28T14:32:26.289Z,101968.13
2022-08-28T14:34:58.299Z,101965.56
2022-08-28T14:37:30.304Z,101961.06
2022-08-28T14:40:02.474Z,101966.09
2022-08-28T14:42:34.829Z,101969.56
2022-08-28T14:45:07.222Z,101966.00
2022-08-28T14:47:39.437Z,101973.78
2022-08-28T14:50:11.640Z,101973.78
2022-08-28T14:52:43.651Z,101974.31
2022-08-28T14:55:18.740Z,101969.06
2022-08-28T14:57:51.363Z,101967.97
2022-08-28T15:00:23.495Z,101978.06
2022-08-28T15:02:59.857Z,101968.31
2022-08-28T15:05:32.163Z,101971.72
2022-08-28T15:08:14.900Z,101958.50
2022-08-28T15:10:48.686Z,101965.13
2022-08-28T15:13:21.921Z,101965.78
2022-08-28T15:16:16.075Z,101957.78
2022-08-28T15:18:48.742Z,101976.09
2022-08-28T15:21:34.738Z,101978.66
2022-08-28T15:24:07.710Z,101974.56
2022-08-28T15:26:40.307Z,101975.69
2022-08-28T15:29:12.680Z,101976.16
2022-08-28T15:31:49.077Z,101974.03
2022-08-28T15:34:25.209Z,101969.94
2022-08-28T15:36:59.350Z,101981.66
2022-08-28T15:39:49.702Z,101982.81
2022-08-28T15:42:23.371Z,101980.00
2022-08-28T15:44:55.397Z,101983.63
2022-08-28T15:47:27.598Z,101986.34
2022-08-28T15:49:59.627Z,101990.53
2022-08-28T15:52:32.221Z,101988.91
2022-08-28T15:55:06.334Z,101990.69
2022-08-28T15:57:38.342Z,101993.31
2022-08-28T16:00:11.952Z,101987.75
2022-08-28T16:02:44.571Z,101991.50
2022-08-28T16:05:17.406Z,101997.97
2022-08-28T16:07:49.455Z,101991.53
2022-08-28T16:10:22.479Z,101998.84
2022-08-28T16:12:57.536Z,101987.75
2022-08-28T16:15:30.161Z,101990.88
2022-08-28T16:18:02.459Z,101989.88
2022-08-28T16:20:35.199Z,101989.72
2022-08-28T16:23:08.839Z,101994.78
2022-08-28T16:25:41.655Z,101990.22
2022-08-28T16:28:14.167Z,101996.09
2022-08-28T16:30:46.784Z,101988.16
2022-08-28T16:33:22.144Z,101995.22
2022-08-28T16:35:56.412Z,102000.59
2022-08-28T16:38:28.766Z,101995.97
2022-08-28T16:41:00.786Z,101998.97
2022-08-28T16:43:32.896Z,102004.69
2022-08-28T16:46:10.293Z,101998.84
2022-08-28T16:48:44.214Z,101994.97
2022-08-28T16:51:17.213Z,102002.13
2022-08-28T16:53:49.379Z,102004.00
2022-08-28T16:56:23.663Z,102011.09
2022-08-28T16:58:57.156Z,102009.75
2022-08-28T17:01:29.558Z,102002.94
2022-08-28T17:04:01.930Z,102005.69
2022-08-28T17:06:35.540Z,102009.50
2022-08-28T17:09:07.562Z,102011.84
2022-08-28T17:11:39.810Z,102005.84
2022-08-28T17:14:12.138Z,102002.22
2022-08-28T17:16:44.541Z,102007.31
2022-08-28T17:19:24.814Z,102004.84
2022-08-28T17:22:15.323Z,102006.09
2022-08-28T17:24:47.850Z,102015.72
2022-08-28T17:27:22.648Z,102015.84
2022-08-28T17:29:55.817Z,102005.84
2022-08-28T17:32:28.705Z,102013.06
2022-08-28T17:35:01.596Z,102008.44
2022-08-28T17:37:33.617Z,102015.72
2022-08-28T17:40:10.359Z,102004.88
2022-08-28T17:42:45.725Z,102011.25
2022-08-28T17:45:17.779Z,102016.66
2022-08-28T17:47:52.518Z,102011.31
2022-08-28T17:50:24.601Z,102013.16
2022-08-28T17:52:56.626Z,102007.13
2022-08-28T17:55:28.685Z,102006.44
2022-08-28T17:58:00.669Z,102013.34
2022-08-28T18:00:33.538Z,102009.91
2022-08-28T18:03:05.804Z,102010.03
2022-08-28T18:05:41.149Z,102008.84
2022-08-28T18:31:46.126Z,102017.88
2022-08-28T18:34:18.239Z,102026.75
2022-08-28T18:36:50.269Z,102019.59
2022-08-28T18:39:29.524Z,102027.63
2022-08-28T18:42:02.208Z,102022.31
2022-08-28T18:44:34.342Z,102028.50
2022-08-28T18:47:06.321Z,102032.16
2022-08-28T18:49:38.399Z,102033.16
2022-08-28T18:52:10.374Z,102038.50
2022-08-28T18:54:42.505Z,102030.88
2022-08-28T18:57:18.627Z,102038.03
2022-08-28T18:59:50.920Z,102041.69
2022-08-28T19:02:23.007Z,102037.09
2022-08-28T19:04:55.138Z,102045.91
2022-08-28T19:07:27.593Z,102047.63
2022-08-28T19:09:59.734Z,102062.03
2022-08-28T19:12:31.785Z,102063.72
2022-08-28T19:15:07.411Z,102059.25
2022-08-28T19:17:40.708Z,102062.00
2022-08-28T19:20:17.301Z,102067.19
2022-08-28T19:22:50.013Z,102064.59
2022-08-28T19:25:28.440Z,102061.09
2022-08-28T19:28:02.015Z,102059.13
2022-08-28T19:30:35.621Z,102059.94
2022-08-28T19:33:07.568Z,102058.13
2022-08-28T19:35:39.748Z,102061.50
2022-08-28T19:38:11.806Z,102057.13
2022-08-28T19:40:45.644Z,102071.13
2022-08-28T19:43:17.885Z,102077.13
2022-08-28T19:45:49.949Z,102071.81
2022-08-28T19:48:22.006Z,102074.47
2022-08-28T19:51:06.692Z,102075.63
2022-08-28T19:53:54.630Z,102085.22
2022-08-28T19:56:33.888Z,102080.97
2022-08-28T19:59:07.687Z,102088.47
2022-08-28T20:01:43.644Z,102092.91
2022-08-28T20:04:17.856Z,102085.91
2022-08-28T20:06:49.931Z,102083.22
2022-08-28T20:09:22.097Z,102089.22
2022-08-28T20:11:54.888Z,102081.38
2022-08-28T20:14:27.745Z,102086.56
2022-08-28T20:17:00.596Z,102084.16
2022-08-28T20:19:33.516Z,102082.28
2022-08-28T20:22:06.000Z,102076.34
2022-08-28T20:24:39.555Z,102080.72
2022-08-28T20:27:11.605Z,102074.41
2022-08-28T20:29:43.774Z,102084.13
2022-08-28T20:32:15.798Z,102075.41
2022-08-28T20:34:47.961Z,102077.91
2022-08-28T20:37:20.162Z,102079.59
2022-08-28T20:39:57.844Z,102079.66
2022-08-28T20:42:31.801Z,102081.44
2022-08-28T20:45:04.992Z,102072.94
2022-08-28T20:47:37.159Z,102065.84
2022-08-28T20:50:09.935Z,102071.19
2022-08-28T20:52:42.426Z,102063.28
2022-08-28T20:55:14.978Z,102077.44
2022-08-28T20:57:46.989Z,102073.97
2022-08-28T21:00:18.948Z,102074.09
2022-08-28T21:02:50.962Z,102074.31
2022-08-28T21:05:23.159Z,102083.31
2022-08-28T21:07:55.163Z,102091.47
2022-08-28T21:10:27.150Z,102103.03
2022-08-28T21:12:59.323Z,102107.38
2022-08-28T21:15:31.730Z,102110.03
2022-08-28T21:18:04.363Z,102103.13
2022-08-28T21:20:37.286Z,102095.19
2022-08-28T21:23:09.290Z,102104.06
2022-08-28T21:25:42.238Z,102103.97
2022-08-28T21:28:14.606Z,102108.41
2022-08-28T21:30:46.857Z,102106.75
2022-08-28T21:33:18.872Z,102106.97
2022-08-28T21:35:50.836Z,102092.94
2022-08-28T21:38:22.814Z,102103.50
2022-08-28T21:40:54.796Z,102098.34
2022-08-28T21:43:27.010Z,102106.31
2022-08-28T21:46:05.694Z,102105.59
2022-08-28T21:48:38.079Z,102110.72
2022-08-28T21:51:14.817Z,102109.09
2022-08-28T21:53:47.486Z,102110.81
2022-08-28T21:56:24.255Z,102106.31
2022-08-28T21:58:57.546Z,102112.34
2022-08-28T22:01:29.583Z,102106.00
2022-08-28T22:04:01.863Z,102107.69
2022-08-28T22:06:34.002Z,102106.00
2022-08-28T22:09:07.409Z,102101.53
2022-08-28T22:11:39.389Z,102105.81
2022-08-28T22:14:11.379Z,102105.06
2022-08-28T22:16:44.830Z,102112.00
2022-08-28T22:19:16.869Z,102111.06
2022-08-28T22:22:08.226Z,102110.88
2022-08-28T22:24:40.281Z,102107.44
2022-08-28T22:27:13.587Z,102102.16
2022-08-28T22:29:45.712Z,102110.16
2022-08-28T22:32:18.353Z,102108.41
2022-08-28T22:34:50.473Z,102099.72
2022-08-28T22:37:23.366Z,102097.94
2022-08-28T22:39:55.517Z,102093.53
2022-08-28T22:42:27.638Z,102102.28
2022-08-28T22:44:59.825Z,102102.34
2022-08-28T22:47:32.180Z,102110.41
2022-08-28T22:50:04.899Z,102110.41
2022-08-28T22:52:38.079Z,102109.44
2022-08-28T22:55:12.812Z,102105.97
2022-08-28T22:57:45.218Z,102097.22
2022-08-28T23:00:24.729Z,102098.13
2022-08-28T23:02:57.804Z,102097.38
2022-08-28T23:05:30.467Z,102098.34
2022-08-28T23:08:02.601Z,102096.47
2022-08-28T23:10:55.596Z,102097.44
2022-08-28T23:13:27.131Z,102094.75
2022-08-28T23:16:00.634Z,102094.66
2022-08-28T23:18:46.375Z,102099.97
2022-08-28T23:21:26.612Z,102101.00
2022-08-28T23:23:58.723Z,102100.03
2022-08-28T23:26:30.800Z,102092.16
2022-08-28T23:29:02.993Z,102089.47
2022-08-28T23:31:35.644Z,102087.78
2022-08-28T23:34:08.052Z,102097.63
2022-08-28T23:36:42.947Z,102096.78
2022-08-28T23:39:15.691Z,102083.69
2022-08-28T23:41:47.957Z,102091.53
2022-08-28T23:44:20.985Z,102090.69
2022-08-28T23:46:52.948Z,102087.00
2022-08-28T23:49:27.102Z,102076.34
2022-08-28T23:51:59.195Z,102084.16
2022-08-28T23:54:31.889Z,102078.97
2022-08-28T23:57:05.331Z,102074.41
2022-08-28T23:59:37.461Z,102067.34
